sensor_id;sensor_type;location;lat;lon;timestamp;temperature;humidity
25949;DHT22;13961;51.178;4.448;2023-04-03T00:01:08;5.30;99.90
25949;DHT22;13961;51.178;4.448;2023-04-03T00:03:34;5.00;99.90
25949;DHT22;13961;51.178;4.448;2023-04-03T00:06:01;5.10;99.90
25949;DHT22;13961;51.178;4.448;2023-04-03T00:08:28;4.90;99.90
25949;DHT22;13961;51.178;4.448;2023-04-03T00:10:56;5.10;99.90
25949;DHT22;13961;51.178;4.448;2023-04-03T00:13:22;4.90;99.90
25949;DHT22;13961;51.178;4.448;2023-04-03T00:15:48;5.10;99.90
25949;DHT22;13961;51.178;4.448;2023-04-03T00:18:14;4.80;99.90
25949;DHT22;13961;51.178;4.448;2023-04-03T00:20:40;5.00;99.90
25949;DHT22;13961;51.178;4.448;2023-04-03T00:23:07;4.70;99.90
25949;DHT22;13961;51.178;4.448;2023-04-03T00:25:32;4.80;99.90
25949;DHT22;13961;51.178;4.448;2023-04-03T00:27:58;4.90;99.90
25949;DHT22;13961;51.178;4.448;2023-04-03T00:30:24;4.70;99.90
25949;DHT22;13961;51.178;4.448;2023-04-03T00:32:51;4.80;99.90
25949;DHT22;13961;51.178;4.448;2023-04-03T00:35:18;4.60;99.90
25949;DHT22;13961;51.178;4.448;2023-04-03T00:37:44;4.60;99.90
25949;DHT22;13961;51.178;4.448;2023-04-03T00:40:12;4.90;99.90
25949;DHT22;13961;51.178;4.448;2023-04-03T00:42:40;4.60;99.90
25949;DHT22;13961;51.178;4.448;2023-04-03T00:47:32;4.90;99.90
25949;DHT22;13961;51.178;4.448;2023-04-03T00:49:58;4.70;99.90
25949;DHT22;13961;51.178;4.448;2023-04-03T00:52:27;4.50;99.90
25949;DHT22;13961;51.178;4.448;2023-04-03T00:54:58;4.70;99.90
25949;DHT22;13961;51.178;4.448;2023-04-03T00:57:27;4.60;99.90
25949;DHT22;13961;51.178;4.448;2023-04-03T00:59:59;4.80;99.90
25949;DHT22;13961;51.178;4.448;2023-04-03T01:02:26;4.70;99.90
25949;DHT22;13961;51.178;4.448;2023-04-03T01:04:52;4.40;99.90
25949;DHT22;13961;51.178;4.448;2023-04-03T01:07:27;4.60;99.90
25949;DHT22;13961;51.178;4.448;2023-04-03T01:09:58;4.30;99.90
25949;DHT22;13961;51.178;4.448;2023-04-03T01:12:35;4.40;99.90
25949;DHT22;13961;51.178;4.448;2023-04-03T01:15:23;4.40;99.90
25949;DHT22;13961;51.178;4.448;2023-04-03T01:17:52;4.40;99.90
25949;DHT22;13961;51.178;4.448;2023-04-03T01:22:51;4.40;99.90
25949;DHT22;13961;51.178;4.448;2023-04-03T01:25:18;4.30;99.90
25949;DHT22;13961;51.178;4.448;2023-04-03T01:27:43;4.50;99.90
25949;DHT22;13961;51.178;4.448;2023-04-03T01:30:10;4.30;99.90
25949;DHT22;13961;51.178;4.448;2023-04-03T01:32:36;4.20;99.90
25949;DHT22;13961;51.178;4.448;2023-04-03T01:35:01;4.20;99.90
25949;DHT22;13961;51.178;4.448;2023-04-03T01:37:27;4.20;99.90
25949;DHT22;13961;51.178;4.448;2023-04-03T01:39:53;4.00;99.90
25949;DHT22;13961;51.178;4.448;2023-04-03T01:42:18;4.20;99.90
25949;DHT22;13961;51.178;4.448;2023-04-03T01:44:44;4.30;99.90
25949;DHT22;13961;51.178;4.448;2023-04-03T01:47:11;4.40;99.90
25949;DHT22;13961;51.178;4.448;2023-04-03T01:49:36;4.20;99.90
25949;DHT22;13961;51.178;4.448;2023-04-03T01:52:02;4.30;99.90
25949;DHT22;13961;51.178;4.448;2023-04-03T01:54:28;4.20;99.90
25949;DHT22;13961;51.178;4.448;2023-04-03T01:56:53;4.20;99.90
25949;DHT22;13961;51.178;4.448;2023-04-03T01:59:19;3.60;99.90
25949;DHT22;13961;51.178;4.448;2023-04-03T02:01:45;4.00;99.90
25949;DHT22;13961;51.178;4.448;2023-04-03T02:04:11;4.00;99.90
25949;DHT22;13961;51.178;4.448;2023-04-03T02:06:37;4.10;99.90
25949;DHT22;13961;51.178;4.448;2023-04-03T02:09:04;4.30;99.90
25949;DHT22;13961;51.178;4.448;2023-04-03T02:11:30;4.20;99.90
25949;DHT22;13961;51.178;4.448;2023-04-03T02:13:56;4.20;99.90
25949;DHT22;13961;51.178;4.448;2023-04-03T02:16:22;4.00;99.90
25949;DHT22;13961;51.178;4.448;2023-04-03T02:18:47;4.20;99.90
25949;DHT22;13961;51.178;4.448;2023-04-03T02:21:13;4.00;99.90
25949;DHT22;13961;51.178;4.448;2023-04-03T02:23:39;4.10;99.90
25949;DHT22;13961;51.178;4.448;2023-04-03T02:26:07;4.20;99.90
25949;DHT22;13961;51.178;4.448;2023-04-03T02:28:34;4.00;99.90
25949;DHT22;13961;51.178;4.448;2023-04-03T02:31:00;4.00;99.90
25949;DHT22;13961;51.178;4.448;2023-04-03T02:33:26;3.90;99.90
25949;DHT22;13961;51.178;4.448;2023-04-03T02:35:55;3.90;99.90
25949;DHT22;13961;51.178;4.448;2023-04-03T02:38:22;3.80;99.90
25949;DHT22;13961;51.178;4.448;2023-04-03T02:40:48;3.80;99.90
25949;DHT22;13961;51.178;4.448;2023-04-03T02:43:14;4.00;99.90
25949;DHT22;13961;51.178;4.448;2023-04-03T02:45:40;3.80;99.90
25949;DHT22;13961;51.178;4.448;2023-04-03T02:48:06;3.90;99.90
25949;DHT22;13961;51.178;4.448;2023-04-03T02:50:33;3.70;99.90
25949;DHT22;13961;51.178;4.448;2023-04-03T02:52:58;3.60;99.90
25949;DHT22;13961;51.178;4.448;2023-04-03T02:55:24;3.90;99.90
25949;DHT22;13961;51.178;4.448;2023-04-03T02:57:51;3.70;99.90
25949;DHT22;13961;51.178;4.448;2023-04-03T03:00:17;3.80;99.90
25949;DHT22;13961;51.178;4.448;2023-04-03T03:02:43;3.70;99.90
25949;DHT22;13961;51.178;4.448;2023-04-03T03:05:10;3.60;99.90
25949;DHT22;13961;51.178;4.448;2023-04-03T03:07:35;3.60;99.90
25949;DHT22;13961;51.178;4.448;2023-04-03T03:10:02;3.60;99.90
25949;DHT22;13961;51.178;4.448;2023-04-03T03:12:29;3.60;99.90
25949;DHT22;13961;51.178;4.448;2023-04-03T03:14:56;3.60;99.90
25949;DHT22;13961;51.178;4.448;2023-04-03T03:17:22;3.60;99.90
25949;DHT22;13961;51.178;4.448;2023-04-03T03:19:48;3.50;99.90
25949;DHT22;13961;51.178;4.448;2023-04-03T03:22:14;3.40;99.90
25949;DHT22;13961;51.178;4.448;2023-04-03T03:24:39;3.30;99.90
25949;DHT22;13961;51.178;4.448;2023-04-03T03:27:06;3.40;99.90
25949;DHT22;13961;51.178;4.448;2023-04-03T03:29:32;3.50;99.90
25949;DHT22;13961;51.178;4.448;2023-04-03T03:31:57;3.30;99.90
25949;DHT22;13961;51.178;4.448;2023-04-03T03:34:24;3.30;99.90
25949;DHT22;13961;51.178;4.448;2023-04-03T03:36:50;3.30;99.90
25949;DHT22;13961;51.178;4.448;2023-04-03T03:39:16;3.70;99.90
25949;DHT22;13961;51.178;4.448;2023-04-03T03:41:42;3.60;99.90
25949;DHT22;13961;51.178;4.448;2023-04-03T03:44:09;3.50;99.90
25949;DHT22;13961;51.178;4.448;2023-04-03T03:46:35;3.40;99.90
25949;DHT22;13961;51.178;4.448;2023-04-03T03:49:02;3.40;99.90
25949;DHT22;13961;51.178;4.448;2023-04-03T03:51:28;3.40;99.90
25949;DHT22;13961;51.178;4.448;2023-04-03T03:53:55;3.40;99.90
25949;DHT22;13961;51.178;4.448;2023-04-03T03:56:21;3.20;99.90
25949;DHT22;13961;51.178;4.448;2023-04-03T03:58:47;3.30;99.90
25949;DHT22;13961;51.178;4.448;2023-04-03T04:01:13;3.40;99.90
25949;DHT22;13961;51.178;4.448;2023-04-03T04:03:40;3.40;99.90
25949;DHT22;13961;51.178;4.448;2023-04-03T04:06:06;3.40;99.90
25949;DHT22;13961;51.178;4.448;2023-04-03T04:08:33;3.30;99.90
25949;DHT22;13961;51.178;4.448;2023-04-03T04:10:59;3.50;99.90
25949;DHT22;13961;51.178;4.448;2023-04-03T04:13:24;3.40;99.90
25949;DHT22;13961;51.178;4.448;2023-04-03T04:15:50;3.30;99.90
25949;DHT22;13961;51.178;4.448;2023-04-03T04:18:17;3.50;99.90
25949;DHT22;13961;51.178;4.448;2023-04-03T04:20:45;3.40;99.90
25949;DHT22;13961;51.178;4.448;2023-04-03T04:23:11;3.40;99.90
25949;DHT22;13961;51.178;4.448;2023-04-03T04:25:37;3.30;99.90
25949;DHT22;13961;51.178;4.448;2023-04-03T04:28:02;3.30;99.90
25949;DHT22;13961;51.178;4.448;2023-04-03T04:30:28;3.40;99.90
25949;DHT22;13961;51.178;4.448;2023-04-03T04:32:54;3.30;99.90
25949;DHT22;13961;51.178;4.448;2023-04-03T04:35:20;3.50;99.90
25949;DHT22;13961;51.178;4.448;2023-04-03T04:37:45;3.50;99.90
25949;DHT22;13961;51.178;4.448;2023-04-03T04:40:11;3.40;99.90
25949;DHT22;13961;51.178;4.448;2023-04-03T04:42:37;3.20;99.90
25949;DHT22;13961;51.178;4.448;2023-04-03T04:45:04;3.20;99.90
25949;DHT22;13961;51.178;4.448;2023-04-03T04:47:30;3.30;99.90
25949;DHT22;13961;51.178;4.448;2023-04-03T04:49:57;3.20;99.90
25949;DHT22;13961;51.178;4.448;2023-04-03T04:52:22;3.10;99.90
25949;DHT22;13961;51.178;4.448;2023-04-03T04:54:48;3.10;99.90
25949;DHT22;13961;51.178;4.448;2023-04-03T04:57:13;3.10;99.90
25949;DHT22;13961;51.178;4.448;2023-04-03T04:59:39;3.20;99.90
25949;DHT22;13961;51.178;4.448;2023-04-03T05:02:06;3.10;99.90
25949;DHT22;13961;51.178;4.448;2023-04-03T05:04:32;3.00;99.90
25949;DHT22;13961;51.178;4.448;2023-04-03T05:06:58;3.20;99.90
25949;DHT22;13961;51.178;4.448;2023-04-03T05:09:25;3.00;99.90
25949;DHT22;13961;51.178;4.448;2023-04-03T05:11:51;3.00;99.90
25949;DHT22;13961;51.178;4.448;2023-04-03T05:14:17;3.30;99.90
25949;DHT22;13961;51.178;4.448;2023-04-03T05:16:43;3.00;99.90
25949;DHT22;13961;51.178;4.448;2023-04-03T05:19:09;3.00;99.90
25949;DHT22;13961;51.178;4.448;2023-04-03T05:21:35;2.90;99.90
25949;DHT22;13961;51.178;4.448;2023-04-03T05:24:01;3.00;99.90
25949;DHT22;13961;51.178;4.448;2023-04-03T05:26:29;3.40;99.90
25949;DHT22;13961;51.178;4.448;2023-04-03T05:28:56;3.30;99.90
25949;DHT22;13961;51.178;4.448;2023-04-03T05:31:22;3.20;99.90
25949;DHT22;13961;51.178;4.448;2023-04-03T05:33:47;3.40;99.90
25949;DHT22;13961;51.178;4.448;2023-04-03T05:36:13;3.20;99.90
25949;DHT22;13961;51.178;4.448;2023-04-03T05:38:45;3.00;99.90
25949;DHT22;13961;51.178;4.448;2023-04-03T05:41:10;3.20;99.90
25949;DHT22;13961;51.178;4.448;2023-04-03T05:43:36;3.40;99.90
25949;DHT22;13961;51.178;4.448;2023-04-03T05:46:08;3.20;99.90
25949;DHT22;13961;51.178;4.448;2023-04-03T05:48:34;3.30;99.90
25949;DHT22;13961;51.178;4.448;2023-04-03T05:51:00;3.40;99.90
25949;DHT22;13961;51.178;4.448;2023-04-03T05:53:29;3.50;99.90
25949;DHT22;13961;51.178;4.448;2023-04-03T05:55:56;3.40;99.90
25949;DHT22;13961;51.178;4.448;2023-04-03T05:58:21;3.40;99.90
25949;DHT22;13961;51.178;4.448;2023-04-03T06:00:47;3.20;99.90
25949;DHT22;13961;51.178;4.448;2023-04-03T06:03:13;3.50;99.90
25949;DHT22;13961;51.178;4.448;2023-04-03T06:05:39;3.30;99.90
25949;DHT22;13961;51.178;4.448;2023-04-03T06:08:07;3.40;99.90
25949;DHT22;13961;51.178;4.448;2023-04-03T06:10:34;3.40;99.90
25949;DHT22;13961;51.178;4.448;2023-04-03T06:13:01;3.50;99.90
25949;DHT22;13961;51.178;4.448;2023-04-03T06:15:26;3.40;99.90
25949;DHT22;13961;51.178;4.448;2023-04-03T06:17:52;3.40;99.90
25949;DHT22;13961;51.178;4.448;2023-04-03T06:20:18;3.60;99.90
25949;DHT22;13961;51.178;4.448;2023-04-03T06:22:43;3.80;99.90
25949;DHT22;13961;51.178;4.448;2023-04-03T06:25:09;3.80;99.90
25949;DHT22;13961;51.178;4.448;2023-04-03T06:27:36;4.00;99.90
25949;DHT22;13961;51.178;4.448;2023-04-03T06:30:02;3.90;99.90
25949;DHT22;13961;51.178;4.448;2023-04-03T06:32:28;4.50;99.90
25949;DHT22;13961;51.178;4.448;2023-04-03T06:34:54;5.80;99.90
25949;DHT22;13961;51.178;4.448;2023-04-03T06:37:22;7.10;99.90
25949;DHT22;13961;51.178;4.448;2023-04-03T06:39:52;8.50;99.90
25949;DHT22;13961;51.178;4.448;2023-04-03T06:42:19;9.20;99.90
25949;DHT22;13961;51.178;4.448;2023-04-03T06:44:45;9.70;99.90
25949;DHT22;13961;51.178;4.448;2023-04-03T06:47:15;10.10;99.90
25949;DHT22;13961;51.178;4.448;2023-04-03T06:49:42;10.00;99.90
25949;DHT22;13961;51.178;4.448;2023-04-03T06:52:09;10.30;99.90
25949;DHT22;13961;51.178;4.448;2023-04-03T06:54:35;10.00;99.90
25949;DHT22;13961;51.178;4.448;2023-04-03T06:57:01;10.60;99.90
25949;DHT22;13961;51.178;4.448;2023-04-03T06:59:27;11.00;99.90
25949;DHT22;13961;51.178;4.448;2023-04-03T07:01:53;10.40;99.90
25949;DHT22;13961;51.178;4.448;2023-04-03T07:04:18;10.70;99.90
25949;DHT22;13961;51.178;4.448;2023-04-03T07:06:46;10.80;99.90
25949;DHT22;13961;51.178;4.448;2023-04-03T07:09:15;11.70;99.90
25949;DHT22;13961;51.178;4.448;2023-04-03T07:11:41;11.30;99.90
25949;DHT22;13961;51.178;4.448;2023-04-03T07:14:07;12.20;99.90
25949;DHT22;13961;51.178;4.448;2023-04-03T07:16:34;12.70;99.90
25949;DHT22;13961;51.178;4.448;2023-04-03T07:19:00;12.20;99.90
25949;DHT22;13961;51.178;4.448;2023-04-03T07:21:27;12.30;99.90
25949;DHT22;13961;51.178;4.448;2023-04-03T07:23:56;11.30;99.90
25949;DHT22;13961;51.178;4.448;2023-04-03T07:26:22;12.00;99.90
25949;DHT22;13961;51.178;4.448;2023-04-03T07:28:48;12.90;99.90
25949;DHT22;13961;51.178;4.448;2023-04-03T07:31:15;13.60;99.90
25949;DHT22;13961;51.178;4.448;2023-04-03T07:33:43;13.80;99.90
25949;DHT22;13961;51.178;4.448;2023-04-03T07:36:10;13.50;99.90
25949;DHT22;13961;51.178;4.448;2023-04-03T07:38:37;12.80;99.90
25949;DHT22;13961;51.178;4.448;2023-04-03T07:41:03;13.30;99.90
25949;DHT22;13961;51.178;4.448;2023-04-03T07:43:32;12.90;99.90
25949;DHT22;13961;51.178;4.448;2023-04-03T07:46:00;13.00;99.90
25949;DHT22;13961;51.178;4.448;2023-04-03T07:48:26;13.70;99.90
25949;DHT22;13961;51.178;4.448;2023-04-03T07:50:53;13.50;99.90
25949;DHT22;13961;51.178;4.448;2023-04-03T07:53:18;14.10;99.90
25949;DHT22;13961;51.178;4.448;2023-04-03T07:55:48;14.40;99.90
25949;DHT22;13961;51.178;4.448;2023-04-03T07:58:18;13.60;99.90
25949;DHT22;13961;51.178;4.448;2023-04-03T08:00:44;12.20;99.90
25949;DHT22;13961;51.178;4.448;2023-04-03T08:03:11;12.40;99.90
25949;DHT22;13961;51.178;4.448;2023-04-03T08:05:40;13.20;99.90
25949;DHT22;13961;51.178;4.448;2023-04-03T08:08:07;12.70;99.90
25949;DHT22;13961;51.178;4.448;2023-04-03T08:10:34;12.50;99.90
25949;DHT22;13961;51.178;4.448;2023-04-03T08:13:00;13.20;99.90
25949;DHT22;13961;51.178;4.448;2023-04-03T08:15:30;12.80;99.90
25949;DHT22;13961;51.178;4.448;2023-04-03T08:18:00;12.60;99.90
25949;DHT22;13961;51.178;4.448;2023-04-03T08:20:26;13.10;99.90
25949;DHT22;13961;51.178;4.448;2023-04-03T08:22:53;12.40;99.90
25949;DHT22;13961;51.178;4.448;2023-04-03T08:25:19;12.20;99.90
25949;DHT22;13961;51.178;4.448;2023-04-03T08:27:44;11.60;99.90
25949;DHT22;13961;51.178;4.448;2023-04-03T08:30:11;11.70;99.90
25949;DHT22;13961;51.178;4.448;2023-04-03T08:32:37;11.50;99.90
25949;DHT22;13961;51.178;4.448;2023-04-03T08:35:04;12.70;99.90
25949;DHT22;13961;51.178;4.448;2023-04-03T08:37:30;12.40;99.90
25949;DHT22;13961;51.178;4.448;2023-04-03T08:39:56;12.10;99.90
25949;DHT22;13961;51.178;4.448;2023-04-03T08:45:47;12.20;99.90
25949;DHT22;13961;51.178;4.448;2023-04-03T08:48:17;12.00;99.90
25949;DHT22;13961;51.178;4.448;2023-04-03T08:50:51;12.80;99.90
25949;DHT22;13961;51.178;4.448;2023-04-03T08:53:21;13.10;99.90
25949;DHT22;13961;51.178;4.448;2023-04-03T08:55:51;13.00;99.90
25949;DHT22;13961;51.178;4.448;2023-04-03T08:58:21;12.80;99.90
25949;DHT22;13961;51.178;4.448;2023-04-03T09:01:26;12.20;99.90
25949;DHT22;13961;51.178;4.448;2023-04-03T09:03:50;11.80;99.90
25949;DHT22;13961;51.178;4.448;2023-04-03T09:06:26;11.10;99.90
25949;DHT22;13961;51.178;4.448;2023-04-03T09:22:39;9.30;99.90
25949;DHT22;13961;51.178;4.448;2023-04-03T09:25:15;9.00;99.90
25949;DHT22;13961;51.178;4.448;2023-04-03T09:27:42;9.00;99.90
25949;DHT22;13961;51.178;4.448;2023-04-03T09:30:23;9.20;99.90
25949;DHT22;13961;51.178;4.448;2023-04-03T09:32:52;9.10;99.90
25949;DHT22;13961;51.178;4.448;2023-04-03T09:37:49;9.10;99.90
25949;DHT22;13961;51.178;4.448;2023-04-03T09:42:58;9.30;99.90
25949;DHT22;13961;51.178;4.448;2023-04-03T09:45:33;9.10;99.90
25949;DHT22;13961;51.178;4.448;2023-04-03T09:50:38;9.00;99.90
25949;DHT22;13961;51.178;4.448;2023-04-03T09:53:07;8.90;99.90
25949;DHT22;13961;51.178;4.448;2023-04-03T09:55:43;8.90;99.90
25949;DHT22;13961;51.178;4.448;2023-04-03T09:58:25;9.00;99.90
25949;DHT22;13961;51.178;4.448;2023-04-03T10:00:55;9.00;99.90
25949;DHT22;13961;51.178;4.448;2023-04-03T10:03:31;9.10;99.90
25949;DHT22;13961;51.178;4.448;2023-04-03T10:05:58;9.20;99.90
25949;DHT22;13961;51.178;4.448;2023-04-03T10:08:32;9.20;99.90
25949;DHT22;13961;51.178;4.448;2023-04-03T10:11:13;9.10;99.90
25949;DHT22;13961;51.178;4.448;2023-04-03T10:14:10;9.30;99.90
25949;DHT22;13961;51.178;4.448;2023-04-03T10:16:48;9.20;99.90
25949;DHT22;13961;51.178;4.448;2023-04-03T10:30:44;9.80;99.90
25949;DHT22;13961;51.178;4.448;2023-04-03T10:36:19;9.50;99.90
25949;DHT22;13961;51.178;4.448;2023-04-03T10:39:05;9.70;99.90
25949;DHT22;13961;51.178;4.448;2023-04-03T10:47:28;9.60;99.90
25949;DHT22;13961;51.178;4.448;2023-04-03T11:00:55;10.20;99.90
25949;DHT22;13961;51.178;4.448;2023-04-03T11:03:44;10.00;99.90
25949;DHT22;13961;51.178;4.448;2023-04-03T11:06:14;10.00;99.90
25949;DHT22;13961;51.178;4.448;2023-04-03T11:08:51;10.10;99.90
25949;DHT22;13961;51.178;4.448;2023-04-03T11:11:25;10.20;99.90
25949;DHT22;13961;51.178;4.448;2023-04-03T11:14:09;10.20;99.90
25949;DHT22;13961;51.178;4.448;2023-04-03T11:16:46;10.30;99.90
25949;DHT22;13961;51.178;4.448;2023-04-03T11:19:42;10.20;99.90
25949;DHT22;13961;51.178;4.448;2023-04-03T11:22:21;10.40;99.90
25949;DHT22;13961;51.178;4.448;2023-04-03T11:25:06;10.30;99.90
25949;DHT22;13961;51.178;4.448;2023-04-03T11:27:45;10.40;99.90
25949;DHT22;13961;51.178;4.448;2023-04-03T11:30:32;10.40;99.90
25949;DHT22;13961;51.178;4.448;2023-04-03T11:35:27;10.30;99.90
25949;DHT22;13961;51.178;4.448;2023-04-03T11:37:53;10.40;99.20
25949;DHT22;13961;51.178;4.448;2023-04-03T11:40:27;10.50;97.80
25949;DHT22;13961;51.178;4.448;2023-04-03T11:43:17;10.50;98.40
25949;DHT22;13961;51.178;4.448;2023-04-03T11:46:12;10.40;98.20
25949;DHT22;13961;51.178;4.448;2023-04-03T11:48:43;10.40;95.40
25949;DHT22;13961;51.178;4.448;2023-04-03T11:53:40;10.60;92.70
25949;DHT22;13961;51.178;4.448;2023-04-03T11:56:35;10.40;93.90
25949;DHT22;13961;51.178;4.448;2023-04-03T12:04:12;10.80;92.40
25949;DHT22;13961;51.178;4.448;2023-04-03T12:11:49;10.60;91.10
25949;DHT22;13961;51.178;4.448;2023-04-03T12:14:16;10.70;91.00
25949;DHT22;13961;51.178;4.448;2023-04-03T12:16:43;10.60;90.10
25949;DHT22;13961;51.178;4.448;2023-04-03T12:19:33;10.70;92.20
25949;DHT22;13961;51.178;4.448;2023-04-03T12:24:30;10.90;91.70
25949;DHT22;13961;51.178;4.448;2023-04-03T12:32:48;10.80;87.30
25949;DHT22;13961;51.178;4.448;2023-04-03T12:35:29;10.80;85.20
25949;DHT22;13961;51.178;4.448;2023-04-03T12:38:40;10.70;87.60
25949;DHT22;13961;51.178;4.448;2023-04-03T12:44:32;10.90;86.60
25949;DHT22;13961;51.178;4.448;2023-04-03T12:47:14;11.00;87.90
25949;DHT22;13961;51.178;4.448;2023-04-03T12:49:42;10.90;84.90
25949;DHT22;13961;51.178;4.448;2023-04-03T12:54:54;11.10;87.00
25949;DHT22;13961;51.178;4.448;2023-04-03T12:57:25;11.00;84.90
25949;DHT22;13961;51.178;4.448;2023-04-03T12:59:51;10.90;89.10
25949;DHT22;13961;51.178;4.448;2023-04-03T13:02:20;10.70;90.10
25949;DHT22;13961;51.178;4.448;2023-04-03T13:04:49;10.90;90.80
25949;DHT22;13961;51.178;4.448;2023-04-03T13:07:35;11.10;88.80
25949;DHT22;13961;51.178;4.448;2023-04-03T13:12:33;10.80;87.00
25949;DHT22;13961;51.178;4.448;2023-04-03T13:15:03;10.90;88.80
25949;DHT22;13961;51.178;4.448;2023-04-03T13:17:38;11.10;88.20
25949;DHT22;13961;51.178;4.448;2023-04-03T13:20:25;11.00;89.10
25949;DHT22;13961;51.178;4.448;2023-04-03T13:22:59;11.20;90.80
25949;DHT22;13961;51.178;4.448;2023-04-03T13:25:28;11.40;90.00
25949;DHT22;13961;51.178;4.448;2023-04-03T13:27:55;11.30;88.30
25949;DHT22;13961;51.178;4.448;2023-04-03T13:30:32;11.30;90.00
25949;DHT22;13961;51.178;4.448;2023-04-03T13:33:01;11.60;90.80
25949;DHT22;13961;51.178;4.448;2023-04-03T13:38:04;12.00;91.20
25949;DHT22;13961;51.178;4.448;2023-04-03T13:40:30;11.70;90.20
25949;DHT22;13961;51.178;4.448;2023-04-03T13:43:17;11.40;90.50
25949;DHT22;13961;51.178;4.448;2023-04-03T13:48:41;11.60;86.50
25949;DHT22;13961;51.178;4.448;2023-04-03T13:51:19;11.60;88.00
25949;DHT22;13961;51.178;4.448;2023-04-03T13:53:59;11.60;88.10
25949;DHT22;13961;51.178;4.448;2023-04-03T14:01:45;11.60;89.30
25949;DHT22;13961;51.178;4.448;2023-04-03T14:04:20;11.50;88.80
25949;DHT22;13961;51.178;4.448;2023-04-03T14:06:47;11.50;89.60
25949;DHT22;13961;51.178;4.448;2023-04-03T14:09:14;11.60;89.30
25949;DHT22;13961;51.178;4.448;2023-04-03T14:11:41;12.00;89.10
25949;DHT22;13961;51.178;4.448;2023-04-03T14:14:14;11.90;90.10
25949;DHT22;13961;51.178;4.448;2023-04-03T14:16:43;12.10;87.80
25949;DHT22;13961;51.178;4.448;2023-04-03T14:19:20;11.70;83.60
25949;DHT22;13961;51.178;4.448;2023-04-03T14:21:46;11.60;83.00
25949;DHT22;13961;51.178;4.448;2023-04-03T14:24:12;11.50;83.20
25949;DHT22;13961;51.178;4.448;2023-04-03T14:26:38;11.60;83.80
25949;DHT22;13961;51.178;4.448;2023-04-03T14:29:03;11.60;83.90
25949;DHT22;13961;51.178;4.448;2023-04-03T14:31:30;11.70;85.70
25949;DHT22;13961;51.178;4.448;2023-04-03T14:33:56;11.70;84.90
25949;DHT22;13961;51.178;4.448;2023-04-03T14:36:23;11.90;87.30
25949;DHT22;13961;51.178;4.448;2023-04-03T14:38:54;12.10;87.40
25949;DHT22;13961;51.178;4.448;2023-04-03T14:41:23;11.90;83.30
25949;DHT22;13961;51.178;4.448;2023-04-03T14:43:50;11.80;84.60
25949;DHT22;13961;51.178;4.448;2023-04-03T14:46:26;11.80;83.80
25949;DHT22;13961;51.178;4.448;2023-04-03T14:48:53;11.60;82.70
25949;DHT22;13961;51.178;4.448;2023-04-03T14:51:19;11.40;83.40
25949;DHT22;13961;51.178;4.448;2023-04-03T14:53:45;11.50;85.10
25949;DHT22;13961;51.178;4.448;2023-04-03T14:56:23;11.70;85.60
25949;DHT22;13961;51.178;4.448;2023-04-03T14:58:55;11.80;85.10
25949;DHT22;13961;51.178;4.448;2023-04-03T15:01:21;11.80;83.70
25949;DHT22;13961;51.178;4.448;2023-04-03T15:03:47;11.50;83.50
25949;DHT22;13961;51.178;4.448;2023-04-03T15:06:13;11.50;83.70
25949;DHT22;13961;51.178;4.448;2023-04-03T15:08:41;11.60;82.10
25949;DHT22;13961;51.178;4.448;2023-04-03T15:11:09;11.80;81.40
25949;DHT22;13961;51.178;4.448;2023-04-03T15:13:36;11.90;82.00
25949;DHT22;13961;51.178;4.448;2023-04-03T15:16:02;11.80;82.80
25949;DHT22;13961;51.178;4.448;2023-04-03T15:18:32;11.90;84.90
25949;DHT22;13961;51.178;4.448;2023-04-03T15:21:01;12.00;84.10
25949;DHT22;13961;51.178;4.448;2023-04-03T15:23:27;11.50;82.90
25949;DHT22;13961;51.178;4.448;2023-04-03T15:25:54;11.30;84.30
25949;DHT22;13961;51.178;4.448;2023-04-03T15:28:40;11.40;83.40
25949;DHT22;13961;51.178;4.448;2023-04-03T15:31:06;11.30;82.90
25949;DHT22;13961;51.178;4.448;2023-04-03T15:33:35;11.40;84.40
25949;DHT22;13961;51.178;4.448;2023-04-03T15:36:01;11.50;85.00
25949;DHT22;13961;51.178;4.448;2023-04-03T15:38:27;11.70;85.20
25949;DHT22;13961;51.178;4.448;2023-04-03T15:40:54;11.50;84.30
25949;DHT22;13961;51.178;4.448;2023-04-03T15:43:21;11.40;84.50
25949;DHT22;13961;51.178;4.448;2023-04-03T15:45:47;11.40;86.20
25949;DHT22;13961;51.178;4.448;2023-04-03T15:48:13;11.30;86.90
25949;DHT22;13961;51.178;4.448;2023-04-03T15:50:39;11.40;86.80
25949;DHT22;13961;51.178;4.448;2023-04-03T15:53:05;11.50;87.90
25949;DHT22;13961;51.178;4.448;2023-04-03T15:55:33;11.60;88.20
25949;DHT22;13961;51.178;4.448;2023-04-03T15:57:59;11.50;85.50
25949;DHT22;13961;51.178;4.448;2023-04-03T16:00:26;11.30;86.00
25949;DHT22;13961;51.178;4.448;2023-04-03T16:02:56;11.20;85.10
25949;DHT22;13961;51.178;4.448;2023-04-03T16:05:23;11.20;85.60
25949;DHT22;13961;51.178;4.448;2023-04-03T16:07:49;11.30;86.60
25949;DHT22;13961;51.178;4.448;2023-04-03T16:10:17;11.50;86.90
25949;DHT22;13961;51.178;4.448;2023-04-03T16:12:43;11.50;87.10
25949;DHT22;13961;51.178;4.448;2023-04-03T16:15:10;11.50;88.30
25949;DHT22;13961;51.178;4.448;2023-04-03T16:17:37;11.50;88.50
25949;DHT22;13961;51.178;4.448;2023-04-03T16:20:05;11.40;87.90
25949;DHT22;13961;51.178;4.448;2023-04-03T16:22:31;11.40;88.70
25949;DHT22;13961;51.178;4.448;2023-04-03T16:24:57;11.20;89.70
25949;DHT22;13961;51.178;4.448;2023-04-03T16:27:23;11.20;90.00
25949;DHT22;13961;51.178;4.448;2023-04-03T16:29:54;11.10;89.20
25949;DHT22;13961;51.178;4.448;2023-04-03T16:32:20;11.30;90.10
25949;DHT22;13961;51.178;4.448;2023-04-03T16:34:47;11.20;90.60
25949;DHT22;13961;51.178;4.448;2023-04-03T16:37:13;11.10;91.00
25949;DHT22;13961;51.178;4.448;2023-04-03T16:39:38;11.10;90.60
25949;DHT22;13961;51.178;4.448;2023-04-03T16:42:04;10.90;90.50
25949;DHT22;13961;51.178;4.448;2023-04-03T16:44:30;10.90;91.50
25949;DHT22;13961;51.178;4.448;2023-04-03T16:46:55;11.00;91.70
25949;DHT22;13961;51.178;4.448;2023-04-03T16:49:21;10.90;91.90
25949;DHT22;13961;51.178;4.448;2023-04-03T16:51:48;10.90;91.70
25949;DHT22;13961;51.178;4.448;2023-04-03T16:54:14;10.70;92.00
25949;DHT22;13961;51.178;4.448;2023-04-03T16:56:40;10.70;92.50
25949;DHT22;13961;51.178;4.448;2023-04-03T16:59:06;10.70;92.40
25949;DHT22;13961;51.178;4.448;2023-04-03T17:01:32;10.60;92.70
25949;DHT22;13961;51.178;4.448;2023-04-03T17:03:58;10.50;92.70
25949;DHT22;13961;51.178;4.448;2023-04-03T17:06:24;10.40;92.70
25949;DHT22;13961;51.178;4.448;2023-04-03T17:08:51;10.40;93.00
25949;DHT22;13961;51.178;4.448;2023-04-03T17:11:17;10.40;92.60
25949;DHT22;13961;51.178;4.448;2023-04-03T17:13:43;10.40;92.60
25949;DHT22;13961;51.178;4.448;2023-04-03T17:16:12;10.30;92.70
25949;DHT22;13961;51.178;4.448;2023-04-03T17:18:38;10.00;93.20
25949;DHT22;13961;51.178;4.448;2023-04-03T17:21:05;9.90;93.00
25949;DHT22;13961;51.178;4.448;2023-04-03T17:23:32;9.90;93.20
25949;DHT22;13961;51.178;4.448;2023-04-03T17:26:03;9.80;94.10
25949;DHT22;13961;51.178;4.448;2023-04-03T17:28:28;9.80;93.60
25949;DHT22;13961;51.178;4.448;2023-04-03T17:30:59;9.60;94.20